PROFILE

 METAR AND TAF INFORMATION
ADDS - METARS form results

(0608 UTC 22 September 2019)
http://aviationweather.gov/metar/data/
 
PAJN 220553Z 06005KT 9SM -RA FEW004 BKN055 OVC075 11/10 A2960 RMK AO2 RAB39 SLP024 P0001 60008 T01060100 10128 20106 51017 $
PAJN 220544Z 2206/2306 10008KT P6SM -SHRA FEW005 SCT025 OVC050 TEMPO 2208/2212 3SM -RA BR BKN025 FM222100 11009KT P6SM VCSH OVC050 

 AIRPORT MAP

 RUNWAY INFORMATION
Runway 08 Runway length 8457 ft Runway width 150 ft
Runway elevation 21 ft Runway displaced threshold 0 ft Runway heading 105
Runway 26 Runway length 8457 ft Runway width 150 ft
Runway elevation 20 ft Runway displaced threshold 0 ft Runway heading 285
Runway 08W Runway length 4900 ft Runway width 450 ft
Runway elevation 0 ft Runway displaced threshold 0 ft Runway heading 0
Runway 26W Runway length 4900 ft Runway width 450 ft
Runway elevation 0 ft Runway displaced threshold 0 ft Runway heading 0

 AIRPORT FREQUENCIES
Type ATIS Name ATIS Frequency 135.2 MHZ
Type AWOS Name TWEB Frequency 114 MHZ
Type CNTR Name ANCHORAGE Frequency 133.9 MHZ
Type CTAF Name CTAF Frequency 118.7 MHZ
Type FSS Name RDO Frequency 122.2 MHZ
Type GND Name GND Frequency 121.9 MHZ
Type MISC Name RDO Frequency 122.15 MHZ
Type OPS Name NAT GD OPS Frequency 124.65 MHZ
Type TWR Name TWR Frequency 118.7 MHZ
Type UNIC Name UNICOM Frequency 122.95 MHZ

 AIRPORT NEAR NAVIGATION AIDS
Type NDB Name Coghlan Island Frequency 212 KHZ